createdAt,value
2022-10-22T00:00:17.050Z,94629.22
2022-10-22T00:02:45.190Z,94643.44
2022-10-22T00:05:13.054Z,94647.81
2022-10-22T00:07:41.424Z,94647.25
2022-10-22T00:10:10.571Z,94653.84
2022-10-22T00:12:40.215Z,94666.69
2022-10-22T00:15:10.901Z,94672.69
2022-10-22T00:17:39.890Z,94663.69
2022-10-22T00:20:09.295Z,94673.53
2022-10-22T00:22:37.217Z,94680.91
2022-10-22T00:25:05.480Z,94697.59
2022-10-22T00:27:33.903Z,94704.97
2022-10-22T00:30:02.096Z,94709.63
2022-10-22T00:32:32.036Z,94709.38
2022-10-22T00:35:00.097Z,94707.44
2022-10-22T00:37:28.147Z,94701.97
2022-10-22T00:39:57.391Z,94706.38
2022-10-22T00:42:27.182Z,94699.78
2022-10-22T00:45:23.383Z,94702.50
2022-10-22T00:47:57.693Z,94681.75
2022-10-22T00:50:29.317Z,94680.63
2022-10-22T00:52:58.597Z,94677.88
2022-10-22T05:23:07.511Z,94817.75
2022-10-22T06:04:46.717Z,94821.03
2022-10-22T06:07:19.401Z,94825.94
2022-10-22T06:10:28.116Z,94821.00
2022-10-22T06:14:24.439Z,94812.00
2022-10-22T06:28:34.707Z,94833.34
2022-10-22T06:31:44.010Z,94827.34
2022-10-22T06:34:23.319Z,94830.88
2022-10-22T06:36:51.813Z,94818.91
2022-10-22T06:40:24.520Z,94832.53
2022-10-22T06:43:06.968Z,94839.13
2022-10-22T06:45:40.928Z,94843.81
2022-10-22T06:48:10.770Z,94840.31
2022-10-22T06:51:11.803Z,94851.53
2022-10-22T06:53:52.388Z,94854.00
2022-10-22T06:56:30.943Z,94860.03
2022-10-22T06:59:33.397Z,94853.28
2022-10-22T07:02:23.371Z,94877.91
2022-10-22T07:04:56.547Z,94881.25
2022-10-22T07:07:38.504Z,94874.69
2022-10-22T07:10:13.038Z,94885.34
2022-10-22T07:12:53.284Z,94898.50
2022-10-22T07:15:22.584Z,94912.19
2022-10-22T08:19:35.421Z,95008.75
2022-10-22T08:22:47.691Z,95005.53
2022-10-22T08:26:16.733Z,94998.13
2022-10-22T08:29:18.426Z,95011.59
2022-10-22T09:30:52.811Z,95066.53
2022-10-22T09:55:11.457Z,95072.69
2022-10-22T09:57:42.290Z,95082.31
2022-10-22T10:03:36.032Z,95078.25
2022-10-22T10:04:44.615Z,95089.19
2022-10-22T10:07:39.645Z,95082.88
2022-10-22T10:13:23.957Z,95074.41
2022-10-22T10:17:15.822Z,95076.84
2022-10-22T10:20:03.987Z,95076.25
2022-10-22T10:24:38.746Z,95070.47
2022-10-22T10:26:38.055Z,95076.72
2022-10-22T10:29:42.596Z,95069.53
2022-10-22T10:32:52.952Z,95075.44
2022-10-22T10:35:50.224Z,95074.28
2022-10-22T10:38:29.621Z,95080.22
2022-10-22T10:41:03.547Z,95076.34
2022-10-22T10:43:44.895Z,95076.03
2022-10-22T10:46:18.599Z,95083.16
2022-10-22T10:48:58.992Z,95077.03
2022-10-22T10:51:38.227Z,95083.84
2022-10-22T10:54:18.953Z,95080.38
2022-10-22T10:56:49.103Z,95070.06
2022-10-22T10:59:20.793Z,95074.06
2022-10-22T11:02:01.069Z,95072.25
2022-10-22T11:04:50.443Z,95069.06
2022-10-22T11:07:34.095Z,95074.69
2022-10-22T11:10:06.740Z,95067.94
2022-10-22T11:12:36.480Z,95075.56
2022-10-22T11:15:09.883Z,95066.88
2022-10-22T11:17:41.415Z,95069.78
2022-10-22T11:20:16.255Z,95062.78
2022-10-22T11:23:13.516Z,95069.50
2022-10-22T11:25:40.312Z,95065.13
2022-10-22T11:28:13.148Z,95066.53
2022-10-22T11:30:43.036Z,95069.06
2022-10-22T11:33:16.137Z,95068.94
2022-10-22T11:35:45.464Z,95067.50
2022-10-22T11:38:16.671Z,95070.84
2022-10-22T11:40:47.908Z,95066.59
2022-10-22T11:43:28.380Z,95060.97
2022-10-22T11:46:02.663Z,95064.72
2022-10-22T11:48:37.910Z,95066.94
2022-10-22T11:51:34.160Z,95063.88
2022-10-22T11:54:03.532Z,95057.00
2022-10-22T11:56:38.438Z,95056.63
2022-10-22T11:59:15.161Z,95061.41
2022-10-22T12:01:44.115Z,95059.47
2022-10-22T12:04:23.280Z,95053.47
2022-10-22T12:06:55.141Z,95060.13
2022-10-22T12:09:26.060Z,95064.66
2022-10-22T12:11:53.716Z,95058.59
2022-10-22T12:14:26.589Z,95059.00
2022-10-22T12:16:57.700Z,95068.59
2022-10-22T12:19:29.396Z,95055.50
2022-10-22T12:21:59.620Z,95050.69
2022-10-22T12:24:31.747Z,95047.19
2022-10-22T12:26:59.318Z,95050.81
2022-10-22T12:29:28.584Z,95052.06
2022-10-22T12:31:57.712Z,95056.66
2022-10-22T12:34:29.353Z,95052.69
2022-10-22T12:36:57.005Z,95056.34
2022-10-22T12:39:27.677Z,95044.59
2022-10-22T12:41:56.136Z,95045.91
2022-10-22T12:44:23.823Z,95051.66
2022-10-22T12:46:55.971Z,95050.31
2022-10-22T12:49:29.575Z,95053.28
2022-10-22T12:51:57.303Z,95053.09
2022-10-22T12:54:27.442Z,95052.69
2022-10-22T12:56:56.414Z,95055.22
2022-10-22T12:59:26.595Z,95052.69
2022-10-22T13:01:55.128Z,95047.94
2022-10-22T13:04:34.784Z,95047.38
2022-10-22T13:07:18.462Z,95048.31
2022-10-22T13:09:58.962Z,95046.41
2022-10-22T13:12:27.884Z,95043.59
2022-10-22T13:14:55.724Z,95047.94
2022-10-22T13:17:41.555Z,95047.47
2022-10-22T13:20:20.336Z,95042.66
2022-10-22T13:22:58.060Z,95041.22
2022-10-22T13:25:27.716Z,95042.66
2022-10-22T13:27:57.033Z,95043.25
2022-10-22T13:30:26.963Z,95041.09
2022-10-22T13:32:56.277Z,95046.53
2022-10-22T13:35:27.781Z,95034.25
2022-10-22T13:37:55.600Z,95047.47
2022-10-22T13:40:23.263Z,95042.22
2022-10-22T13:42:51.024Z,95044.69
2022-10-22T13:45:19.113Z,95039.78
2022-10-22T13:47:50.911Z,95044.69
2022-10-22T13:50:20.347Z,95040.47
2022-10-22T13:52:52.175Z,95037.81
2022-10-22T13:55:22.234Z,95038.63
2022-10-22T13:57:50.568Z,95042.38
2022-10-22T14:00:20.211Z,95041.75
2022-10-22T14:02:49.531Z,95043.19
2022-10-22T14:05:17.969Z,95039.63
2022-10-22T14:07:46.325Z,95047.78
2022-10-22T14:10:20.545Z,95042.13
2022-10-22T14:12:52.416Z,95037.66
2022-10-22T14:15:24.309Z,95038.41
2022-10-22T14:17:55.563Z,95039.31
2022-10-22T14:20:25.584Z,95049.06
2022-10-22T14:22:53.506Z,95047.28
2022-10-22T14:25:24.117Z,95051.38
2022-10-22T14:27:52.213Z,95048.56
2022-10-22T14:30:21.944Z,95051.69
2022-10-22T14:32:49.997Z,95045.06
2022-10-22T14:35:19.426Z,95045.44
2022-10-22T14:37:47.562Z,95056.00
2022-10-22T14:40:16.900Z,95050.28
2022-10-22T14:42:47.977Z,95053.84
2022-10-22T14:45:18.921Z,95048.88
2022-10-22T14:47:46.631Z,95061.31
2022-10-22T14:50:14.612Z,95056.66
2022-10-22T14:52:44.081Z,95053.88
2022-10-22T14:55:12.349Z,95051.34
2022-10-22T14:57:40.776Z,95058.88
2022-10-22T15:00:17.645Z,95065.28
2022-10-22T15:02:45.789Z,95055.56
2022-10-22T15:05:13.599Z,95062.88
2022-10-22T15:07:41.859Z,95069.84
2022-10-22T15:10:10.662Z,95067.63
2022-10-22T17:58:23.021Z,95192.56
2022-10-22T18:00:52.041Z,95185.38
2022-10-22T18:03:21.042Z,95186.72
2022-10-22T18:05:48.674Z,95191.03
2022-10-22T18:08:16.573Z,95183.72
2022-10-22T18:10:44.300Z,95187.53
2022-10-22T18:13:12.186Z,95184.31
2022-10-22T18:15:40.100Z,95186.16
2022-10-22T18:18:09.422Z,95190.66
2022-10-22T18:20:37.203Z,95179.94
2022-10-22T18:23:05.145Z,95183.19
2022-10-22T18:25:32.972Z,95177.31
2022-10-22T18:28:00.805Z,95183.47
2022-10-22T18:30:28.703Z,95190.72
2022-10-22T18:32:56.593Z,95186.34
2022-10-22T18:35:25.841Z,95182.53
2022-10-22T18:37:53.520Z,95194.53
2022-10-22T18:40:21.142Z,95200.00
2022-10-22T18:42:48.821Z,95207.88
2022-10-22T18:45:16.528Z,95199.44
2022-10-22T18:47:44.525Z,95197.22
2022-10-22T18:50:12.187Z,95191.19
2022-10-22T18:52:41.573Z,95192.50
2022-10-22T18:55:09.954Z,95183.88
2022-10-22T18:57:37.730Z,95182.91
2022-10-22T19:00:06.881Z,95183.03
2022-10-22T19:02:34.518Z,95178.00
2022-10-22T19:05:02.173Z,95175.59
2022-10-22T19:07:29.868Z,95171.16
2022-10-22T19:10:00.753Z,95166.69
2022-10-22T19:12:28.444Z,95170.47
2022-10-22T19:14:56.753Z,95159.31
2022-10-22T19:17:24.415Z,95166.75
2022-10-22T19:19:52.155Z,95174.13
2022-10-22T19:22:20.890Z,95180.66
2022-10-22T19:24:49.798Z,95181.75
2022-10-22T19:27:19.632Z,95180.09
2022-10-22T19:29:49.389Z,95174.47
2022-10-22T19:32:19.822Z,95181.72
2022-10-22T19:34:47.809Z,95173.91
2022-10-22T19:37:15.677Z,95167.34
2022-10-22T19:39:43.440Z,95169.50
2022-10-22T19:42:11.322Z,95165.47
2022-10-22T19:44:40.603Z,95167.34
2022-10-22T19:47:09.582Z,95165.34
2022-10-22T19:49:37.294Z,95172.22
2022-10-22T19:52:05.302Z,95175.88
2022-10-22T19:54:33.044Z,95173.88
2022-10-22T19:59:34.452Z,95169.44
2022-10-22T20:02:03.560Z,95173.13
2022-10-22T20:04:31.342Z,95176.91
2022-10-22T20:07:02.706Z,95171.13
2022-10-22T20:09:31.075Z,95178.25
2022-10-22T20:11:59.600Z,95178.16
2022-10-22T20:14:27.972Z,95181.72
2022-10-22T20:16:56.208Z,95175.44
2022-10-22T20:19:28.861Z,95185.78
2022-10-22T20:21:56.963Z,95188.50
2022-10-22T20:24:24.853Z,95194.34
2022-10-22T20:26:52.846Z,95199.94
2022-10-22T20:29:21.119Z,95196.88
2022-10-22T20:31:52.203Z,95197.94
2022-10-22T20:34:20.738Z,95186.94
2022-10-22T20:36:50.442Z,95183.13
2022-10-22T20:39:19.033Z,95186.47
2022-10-22T20:41:47.048Z,95185.38
2022-10-22T20:44:17.027Z,95186.31
2022-10-22T20:46:45.336Z,95182.00
2022-10-22T20:49:15.048Z,95187.78
2022-10-22T20:51:42.917Z,95187.31
2022-10-22T20:54:12.477Z,95180.72
2022-10-22T20:56:41.235Z,95180.94
2022-10-22T20:59:10.870Z,95180.47
2022-10-22T21:01:40.294Z,95186.75
2022-10-22T21:04:08.206Z,95192.44
2022-10-22T21:06:38.191Z,95190.69
2022-10-22T21:09:07.223Z,95190.69
2022-10-22T21:11:37.164Z,95182.66
2022-10-22T21:14:05.579Z,95172.22
2022-10-22T21:16:33.593Z,95172.00
2022-10-22T21:19:01.875Z,95175.91
2022-10-22T21:21:29.801Z,95177.66
2022-10-22T21:23:57.710Z,95183.19
2022-10-22T21:26:25.376Z,95181.63
2022-10-22T21:28:54.510Z,95180.88
2022-10-22T21:31:26.386Z,95182.03
2022-10-22T21:33:55.735Z,95182.03
2022-10-22T21:36:26.036Z,95179.56
2022-10-22T21:38:55.551Z,95175.69
2022-10-22T21:41:25.845Z,95178.91
2022-10-22T21:43:55.514Z,95171.94
2022-10-22T21:46:25.800Z,95171.59
2022-10-22T21:48:54.724Z,95171.25
2022-10-22T21:51:23.978Z,95172.94
2022-10-22T21:56:26.497Z,95159.31
2022-10-22T21:58:55.648Z,95163.34
2022-10-22T22:01:24.086Z,95165.97
2022-10-22T22:03:52.393Z,95175.47
2022-10-22T22:06:22.089Z,95176.53
2022-10-22T22:08:51.214Z,95172.22
2022-10-22T22:11:21.001Z,95154.75
2022-10-22T22:13:49.475Z,95165.88
2022-10-22T22:16:22.554Z,95166.13
2022-10-22T22:18:53.334Z,95159.03
2022-10-22T22:21:22.307Z,95165.44
2022-10-22T22:23:50.942Z,95168.66
2022-10-22T22:26:25.295Z,95171.84
2022-10-22T22:28:56.412Z,95163.09
2022-10-22T22:31:26.866Z,95167.38
2022-10-22T22:33:59.238Z,95156.38
2022-10-22T22:36:26.886Z,95152.25
2022-10-22T22:38:55.455Z,95151.19
2022-10-22T22:41:23.404Z,95141.94
2022-10-22T22:43:51.157Z,95140.28
2022-10-22T22:46:18.857Z,95144.34
2022-10-22T22:48:50.394Z,95134.66
2022-10-22T22:51:18.837Z,95129.34
2022-10-22T22:53:46.614Z,95132.44
2022-10-22T22:56:16.715Z,95132.94
2022-10-22T22:58:44.844Z,95135.78
2022-10-22T23:01:15.285Z,95131.16
2022-10-22T23:03:43.436Z,95126.41
2022-10-22T23:06:12.949Z,95118.16
2022-10-22T23:08:41.604Z,95120.88
2022-10-22T23:11:10.841Z,95115.88
2022-10-22T23:13:39.585Z,95113.63
2022-10-22T23:16:08.298Z,95112.25
2022-10-22T23:18:36.204Z,95108.09
2022-10-22T23:21:07.546Z,95108.09
2022-10-22T23:23:36.843Z,95109.75
2022-10-22T23:26:05.063Z,95106.22
2022-10-22T23:28:34.598Z,95101.59
2022-10-22T23:31:05.211Z,95107.63
2022-10-22T23:33:33.389Z,95099.94
2022-10-22T23:36:01.817Z,95098.53
2022-10-22T23:38:29.495Z,95100.31
2022-10-22T23:40:58.520Z,95091.47
2022-10-22T23:43:26.560Z,95087.94
2022-10-22T23:45:54.840Z,95093.84
2022-10-22T23:48:23.069Z,95094.31
2022-10-22T23:50:51.158Z,95093.50
2022-10-22T23:53:18.957Z,95084.88
2022-10-22T23:55:46.819Z,95091.94
2022-10-22T23:58:16.049Z,95086.03
